Time;durP1;ratioP1;P1;durP2;ratioP2;P2;SDS_P1;SDS_P2;PMS_P1;PMS_P2;Temp;Humidity;BMP_temperature;BMP_pressure;BME280_temperature;BME280_humidity;BME280_pressure;Samples;Min_cycle;Max_cycle;Signal;HPM_P1;HPM_P2
2023/10/18 00:01:09;;;;;;;10.07;7.50;;;;;;;10.09;63.07;101190.56;5089735;28;20024;-63
2023/10/18 00:03:37;;;;;;;9.65;7.60;;;;;;;10.05;63.01;101193.00;5089866;28;20033;-63
2023/10/18 00:06:28;;;;;;;8.88;7.53;;;;;;;10.05;63.09;101181.91;5089388;28;20072;-63
2023/10/18 00:08:59;;;;;;;8.70;7.80;;;;;;;10.12;62.61;101167.06;5091390;28;20043;-63
2023/10/18 00:11:25;;;;;;;8.48;7.55;;;;;;;10.05;62.77;101176.34;5092740;28;20380;-63
2023/10/18 00:13:53;;;;;;;10.65;7.60;;;;;;;10.01;63.07;101174.31;5106828;28;20035;-63
2023/10/18 00:16:20;;;;;;;8.85;7.50;;;;;;;10.01;62.90;101177.91;5105753;28;20098;-63
2023/10/18 00:18:46;;;;;;;9.10;7.50;;;;;;;10.03;63.09;101170.22;5102226;28;20103;-63
2023/10/18 00:21:12;;;;;;;9.43;7.82;;;;;;;9.97;63.19;101168.41;5103359;28;20107;-63
2023/10/18 00:23:37;;;;;;;9.07;7.70;;;;;;;9.99;62.90;101174.56;5110491;28;20035;-63
2023/10/18 00:26:07;;;;;;;10.35;7.88;;;;;;;10.03;63.04;101175.75;5099213;28;20483;-63
2023/10/18 00:28:34;;;;;;;9.65;7.78;;;;;;;9.99;62.87;101169.00;5097626;28;20370;-63
2023/10/18 00:31:29;;;;;;;8.40;7.60;;;;;;;10.04;63.16;101166.34;5101802;28;20574;-63
2023/10/18 00:33:54;;;;;;;10.38;8.02;;;;;;;9.97;62.86;101160.06;5092787;28;20039;-63
2023/10/18 00:36:20;;;;;;;9.25;7.60;;;;;;;9.97;62.92;101162.00;5091451;28;20047;-64
2023/10/18 00:38:46;;;;;;;7.90;7.10;;;;;;;9.93;62.95;101166.34;5090314;28;20425;-63
2023/10/18 00:41:16;;;;;;;9.38;7.15;;;;;;;9.95;62.80;101166.97;5089635;28;20120;-63
2023/10/18 00:43:45;;;;;;;10.48;7.75;;;;;;;9.85;63.33;101164.78;5090910;28;20032;-64
2023/10/18 00:46:13;;;;;;;7.88;6.97;;;;;;;9.86;62.79;101162.84;5099079;28;20028;-63
2023/10/18 00:48:40;;;;;;;9.93;7.40;;;;;;;9.89;62.71;101157.66;5101406;28;20035;-63
2023/10/18 00:51:09;;;;;;;9.15;7.28;;;;;;;9.90;62.51;101159.34;5111344;28;20371;-63
2023/10/18 00:53:35;;;;;;;11.02;7.15;;;;;;;9.89;62.69;101154.91;5111639;28;20026;-63
2023/10/18 00:56:00;;;;;;;9.07;7.10;;;;;;;9.86;62.80;101152.59;5110691;28;20442;-63
2023/10/18 00:58:39;;;;;;;8.93;7.63;;;;;;;9.90;62.60;101147.41;5110851;28;20026;-63
2023/10/18 01:01:10;;;;;;;8.45;7.25;;;;;;;9.93;62.51;101142.22;5094379;28;20031;-63
2023/10/18 01:03:50;;;;;;;8.85;7.32;;;;;;;9.94;62.45;101143.94;5095066;28;20502;-63
2023/10/18 01:06:20;;;;;;;10.30;6.60;;;;;;;9.91;62.35;101129.72;5098059;28;20031;-63
2023/10/18 01:08:49;;;;;;;8.70;6.95;;;;;;;9.86;62.32;101119.31;5094935;28;20043;-63
2023/10/18 01:11:18;;;;;;;10.20;6.97;;;;;;;9.88;62.31;101119.09;5101771;28;20046;-63
2023/10/18 01:13:45;;;;;;;10.18;6.80;;;;;;;9.87;62.48;101109.09;5115314;28;20024;-64
2023/10/18 01:16:14;;;;;;;8.63;6.78;;;;;;;9.89;62.32;101118.00;5112207;28;20107;-64
2023/10/18 01:18:44;;;;;;;8.00;6.78;;;;;;;9.85;62.38;101103.78;5094519;28;20016;-65
2023/10/18 01:21:15;;;;;;;10.07;7.13;;;;;;;9.88;62.26;101099.69;5098908;28;20439;-65
2023/10/18 01:23:51;;;;;;;9.97;7.07;;;;;;;9.82;62.30;101096.81;5111245;28;20073;-65
2023/10/18 01:26:21;;;;;;;9.00;6.80;;;;;;;9.81;62.37;101095.09;5094047;28;20323;-65
2023/10/18 01:28:47;;;;;;;10.15;6.75;;;;;;;9.82;62.53;101093.19;5094289;28;20081;-65
2023/10/18 01:31:13;;;;;;;10.32;6.82;;;;;;;9.78;62.25;101087.28;5112101;28;20039;-64
2023/10/18 01:33:40;;;;;;;12.18;7.43;;;;;;;9.81;62.21;101084.03;5114130;28;20030;-65
2023/10/18 01:36:06;;;;;;;9.00;7.07;;;;;;;9.74;62.10;101088.84;5113287;28;20051;-65
2023/10/18 01:38:32;;;;;;;10.23;7.05;;;;;;;9.78;62.48;101080.88;5100001;28;20453;-65
2023/10/18 01:41:08;;;;;;;10.75;7.45;;;;;;;9.75;62.39;101076.69;5112033;28;20386;-65
2023/10/18 01:43:36;;;;;;;8.48;7.15;;;;;;;9.68;62.56;101077.91;5097504;28;20808;-65
2023/10/18 01:46:06;;;;;;;8.93;7.38;;;;;;;9.66;62.57;101072.56;5094144;28;20038;-65
2023/10/18 01:48:31;;;;;;;7.57;6.78;;;;;;;9.68;62.56;101064.03;5094416;28;20071;-65
2023/10/18 01:50:57;;;;;;;8.75;7.20;;;;;;;9.66;62.04;101063.44;5093539;28;20479;-65
2023/10/18 01:53:23;;;;;;;7.85;6.63;;;;;;;9.71;62.65;101052.47;5095426;28;20028;-64
2023/10/18 01:55:53;;;;;;;11.20;7.45;;;;;;;9.70;62.48;101053.53;5103747;28;20787;-64
2023/10/18 01:58:23;;;;;;;9.40;7.05;;;;;;;9.64;62.23;101055.38;5093962;28;20506;-65
2023/10/18 02:00:49;;;;;;;8.52;7.20;;;;;;;9.61;62.31;101055.00;5096334;28;20638;-65
2023/10/18 02:03:14;;;;;;;8.75;7.07;;;;;;;9.58;62.50;101046.06;5093201;28;20097;-64
2023/10/18 02:05:43;;;;;;;9.13;6.82;;;;;;;9.65;62.32;101047.88;5093186;28;20081;-65
2023/10/18 02:08:09;;;;;;;8.00;7.15;;;;;;;9.63;62.35;101041.72;5093407;28;20036;-64
2023/10/18 02:10:34;;;;;;;10.70;7.32;;;;;;;9.62;62.00;101031.75;5092559;28;20035;-65
2023/10/18 02:13:00;;;;;;;9.32;7.15;;;;;;;9.54;62.40;101032.94;5093382;28;20086;-65
2023/10/18 02:15:26;;;;;;;9.02;6.90;;;;;;;9.57;62.44;101033.31;5093427;28;20379;-64
2023/10/18 02:17:53;;;;;;;8.50;6.60;;;;;;;9.57;62.23;101027.75;5095832;28;20024;-65
2023/10/18 02:20:28;;;;;;;8.30;7.00;;;;;;;9.61;62.51;101018.97;5093186;28;20055;-64
2023/10/18 02:23:00;;;;;;;9.95;7.05;;;;;;;9.60;62.03;101026.44;5093542;28;20028;-65
2023/10/18 02:28:08;;;;;;;9.50;7.22;;;;;;;9.56;62.33;101023.31;5092714;28;20040;-64
2023/10/18 02:30:37;;;;;;;8.40;6.80;;;;;;;9.55;62.60;101024.41;5093474;28;20102;-64
2023/10/18 02:33:04;;;;;;;8.77;7.22;;;;;;;9.55;62.57;101024.41;5092677;28;20103;-65
2023/10/18 02:35:31;;;;;;;8.73;7.13;;;;;;;9.53;62.15;101021.03;5095370;28;20051;-65
2023/10/18 02:37:56;;;;;;;9.00;7.20;;;;;;;9.51;62.19;101020.44;5093160;28;20035;-65
2023/10/18 02:40:30;;;;;;;7.80;6.85;;;;;;;9.47;62.68;101016.47;5092199;28;20024;-64
2023/10/18 02:42:57;;;;;;;9.40;7.00;;;;;;;9.49;62.42;101013.44;5093102;28;20190;-65
2023/10/18 02:45:23;;;;;;;11.45;6.70;;;;;;;9.42;62.83;101013.56;5092145;28;20062;-65
2023/10/18 02:47:51;;;;;;;9.05;6.75;;;;;;;9.48;62.73;101014.53;5091451;28;20063;-65
2023/10/18 02:50:20;;;;;;;11.60;7.38;;;;;;;9.46;62.69;101009.22;5093298;28;20074;-65
2023/10/18 02:52:46;;;;;;;12.18;7.30;;;;;;;9.42;62.62;101009.94;5095496;28;20032;-65
2023/10/18 02:55:18;;;;;;;8.25;6.68;;;;;;;9.47;62.29;101004.50;5092178;28;20028;-64
2023/10/18 02:57:46;;;;;;;;;;;;;;;9.62;62.46;100995.72;5093628;28;20052;-64
2023/10/18 03:00:13;;;;;;;8.27;6.93;;;;;;;9.48;62.36;100995.97;5096532;28;20010;-64
2023/10/18 03:02:45;;;;;;;8.82;7.32;;;;;;;9.48;62.68;100989.59;5108537;28;20024;-65
2023/10/18 03:05:11;;;;;;;10.43;6.93;;;;;;;9.46;62.64;100988.97;5104915;28;20106;-65
2023/10/18 03:07:37;;;;;;;9.10;7.55;;;;;;;9.44;62.29;100983.69;5096417;28;20038;-65
2023/10/18 03:10:11;;;;;;;10.25;7.18;;;;;;;9.41;62.49;100977.78;5100008;28;20412;-65
2023/10/18 03:12:44;;;;;;;8.15;6.85;;;;;;;9.44;62.63;100977.31;5100138;28;20027;-65
2023/10/18 03:15:12;;;;;;;9.02;7.05;;;;;;;9.41;62.14;100975.88;5100121;28;20490;-65
2023/10/18 03:17:37;;;;;;;8.57;7.20;;;;;;;9.41;61.99;100984.19;5108653;28;20536;-64
2023/10/18 03:20:22;;;;;;;9.32;7.25;;;;;;;9.38;62.72;100979.13;5094725;28;20028;-65
2023/10/18 03:22:51;;;;;;;10.38;7.38;;;;;;;9.37;62.48;100965.50;5092576;28;20497;-65
2023/10/18 03:25:17;;;;;;;9.82;7.72;;;;;;;9.36;62.13;100961.91;5093213;28;20043;-64
2023/10/18 03:27:49;;;;;;;8.95;7.22;;;;;;;9.31;62.31;100962.63;5096537;28;20028;-65
2023/10/18 03:30:19;;;;;;;10.70;7.82;;;;;;;9.34;62.58;100966.84;5102123;28;20031;-65
2023/10/18 03:32:50;;;;;;;8.50;6.57;;;;;;;9.32;62.58;100969.03;5100913;28;20764;-64
2023/10/18 03:35:21;;;;;;;10.88;7.32;;;;;;;9.31;62.78;100956.22;5098778;28;20120;-65
2023/10/18 03:37:47;;;;;;;8.25;7.15;;;;;;;9.31;62.38;100956.22;5095446;28;20051;-65
2023/10/18 03:40:20;;;;;;;8.48;7.28;;;;;;;9.30;62.65;100947.09;5108055;28;20421;-64
2023/10/18 03:42:50;;;;;;;12.40;7.78;;;;;;;9.23;62.77;100948.28;5111324;28;20138;-65
2023/10/18 03:45:21;;;;;;;10.57;7.53;;;;;;;9.27;62.61;100938.41;5098935;28;20051;-65
2023/10/18 03:47:57;;;;;;;8.57;7.20;;;;;;;9.20;62.77;100930.25;5101165;28;20032;-64
2023/10/18 03:50:28;;;;;;;9.65;6.88;;;;;;;9.21;62.72;100920.84;5097570;28;20032;-64
2023/10/18 03:52:54;;;;;;;10.93;7.45;;;;;;;9.23;62.71;100926.13;5095864;28;20032;-64
2023/10/18 03:55:23;;;;;;;8.70;6.95;;;;;;;9.20;62.48;100921.94;5095742;28;20703;-65
2023/10/18 03:57:54;;;;;;;10.10;7.20;;;;;;;9.20;62.38;100927.47;5095810;28;20066;-64
2023/10/18 04:02:53;;;;;;;11.20;8.43;;;;;;;9.22;62.66;100907.84;5099363;28;20169;-64
2023/10/18 04:05:35;;;;;;;8.52;7.30;;;;;;;9.19;62.61;100903.63;5091030;28;20051;-64
2023/10/18 04:08:02;;;;;;;8.70;7.22;;;;;;;9.22;62.72;100908.69;5093014;28;20761;-64
2023/10/18 04:10:31;;;;;;;9.90;7.32;;;;;;;9.21;62.26;100903.41;5093406;28;20039;-64
2023/10/18 04:12:56;;;;;;;10.07;7.20;;;;;;;9.19;62.32;100900.00;5097526;28;20032;-64
2023/10/18 04:15:22;;;;;;;9.25;7.00;;;;;;;9.17;62.74;100905.81;5097133;28;20054;-64
2023/10/18 04:18:02;;;;;;;11.30;7.38;;;;;;;9.17;62.18;100907.75;5097450;28;20377;-64
2023/10/18 04:20:31;;;;;;;10.02;7.28;;;;;;;9.13;62.71;100898.22;5095201;28;20016;-64
2023/10/18 04:22:57;;;;;;;8.57;6.85;;;;;;;9.08;62.67;100888.72;5092992;28;20042;-64
2023/10/18 04:25:32;;;;;;;9.18;7.25;;;;;;;9.12;62.92;100886.31;5098719;28;20040;-64
2023/10/18 04:28:06;;;;;;;7.35;6.57;;;;;;;9.10;63.13;100883.78;5093946;28;20043;-64
2023/10/18 04:30:32;;;;;;;9.50;7.30;;;;;;;9.07;62.68;100881.47;5090835;28;20101;-64
2023/10/18 04:33:00;;;;;;;9.02;6.88;;;;;;;9.12;62.57;100874.38;5098902;28;20499;-64
2023/10/18 04:35:44;;;;;;;12.00;7.70;;;;;;;9.09;63.01;100871.03;5091618;28;20028;-65
2023/10/18 04:38:23;;;;;;;8.35;7.07;;;;;;;9.10;62.44;100867.16;5095172;28;20103;-64
2023/10/18 04:41:03;;;;;;;9.82;7.25;;;;;;;9.07;62.14;100858.50;5100898;28;20059;-64
2023/10/18 04:43:28;;;;;;;8.55;6.82;;;;;;;9.07;62.92;100862.09;5104676;28;20410;-64
2023/10/18 04:45:57;;;;;;;11.50;7.05;;;;;;;9.03;63.07;100863.66;5095699;28;20032;-64
2023/10/18 04:48:59;;;;;;;8.52;6.93;;;;;;;9.05;62.84;100857.91;5099386;28;20098;-64
2023/10/18 04:51:08;;;;;;;9.95;6.95;;;;;;;9.08;62.41;100865.72;5099241;28;20089;-64
2023/10/18 04:53:33;;;;;;;7.28;6.57;;;;;;;9.09;62.29;100865.47;5105530;28;20031;-64
2023/10/18 04:55:59;;;;;;;11.57;7.13;;;;;;;9.13;62.61;100859.47;5101887;28;20063;-64
2023/10/18 04:58:29;;;;;;;10.95;7.40;;;;;;;9.05;62.51;100844.91;5096276;28;20019;-64
2023/10/18 05:00:57;;;;;;;8.57;6.68;;;;;;;9.06;62.09;100846.56;5105032;28;20028;-64
2023/10/18 05:03:32;;;;;;;8.43;7.25;;;;;;;9.07;62.40;100851.03;5106215;28;20115;-65
2023/10/18 05:05:57;;;;;;;10.15;7.60;;;;;;;9.06;62.48;100842.97;5094540;28;20124;-64
2023/10/18 05:08:23;;;;;;;9.38;6.88;;;;;;;9.02;62.66;100836.25;5102912;28;20130;-64
2023/10/18 05:10:52;;;;;;;10.40;6.93;;;;;;;8.97;62.47;100828.66;5110479;28;20036;-64
2023/10/18 05:13:32;;;;;;;10.57;7.38;;;;;;;9.02;62.94;100830.69;5096616;28;20027;-64
2023/10/18 05:16:01;;;;;;;8.25;7.00;;;;;;;9.04;62.71;100821.06;5094051;28;20046;-64
2023/10/18 05:18:26;;;;;;;13.90;7.88;;;;;;;9.06;62.56;100818.88;5097935;28;20022;-64
2023/10/18 05:23:22;;;;;;;10.43;7.47;;;;;;;9.09;62.75;100821.19;5096499;28;20379;-64
2023/10/18 05:25:48;;;;;;;9.05;8.02;;;;;;;9.05;62.48;100819.16;5090840;28;20055;-64
2023/10/18 05:28:17;;;;;;;10.50;7.65;;;;;;;9.04;62.14;100821.06;5090312;28;20467;-64
2023/10/18 05:41:28;;;;;;;9.50;7.82;;;;;;;9.04;62.90;100809.16;5097804;28;20048;-64
2023/10/18 05:44:00;;;;;;;8.93;7.53;;;;;;;9.00;62.54;100810.72;5090649;28;20450;-64
2023/10/18 05:46:31;;;;;;;;;;;;;;;9.16;62.62;100809.97;5106318;28;20064;-64
2023/10/18 05:49:00;;;;;;;11.48;7.40;;;;;;;8.98;62.54;100802.66;5093628;28;19924;-64
2023/10/18 05:51:29;;;;;;;11.98;8.00;;;;;;;8.95;62.63;100805.91;5097367;28;20020;-64
2023/10/18 05:53:59;;;;;;;11.02;8.20;;;;;;;8.95;62.61;100803.16;5094724;28;20020;-65
2023/10/18 05:56:31;;;;;;;11.60;8.30;;;;;;;8.92;62.65;100805.56;5101825;28;20027;-64
2023/10/18 05:59:22;;;;;;;;;;;;;;;9.09;62.33;100803.72;5097973;28;20036;-64
2023/10/18 06:01:58;;;;;;;9.23;7.15;;;;;;;8.96;62.54;100799.31;5104120;28;20607;-64
2023/10/18 06:04:23;;;;;;;9.98;7.55;;;;;;;8.94;62.12;100792.31;5102492;28;20028;-64
2023/10/18 06:07:09;;;;;;;11.05;8.00;;;;;;;8.91;62.47;100790.88;5104115;28;20040;-64
2023/10/18 06:09:44;;;;;;;10.98;8.00;;;;;;;8.91;61.84;100790.88;5093436;28;20065;-64
2023/10/18 06:12:10;;;;;;;8.57;7.47;;;;;;;8.91;62.41;100793.63;5099081;28;20031;-64
2023/10/18 06:14:41;;;;;;;11.25;7.80;;;;;;;8.91;62.31;100790.03;5113880;28;20024;-64
2023/10/18 06:17:08;;;;;;;9.48;7.50;;;;;;;8.92;62.50;100786.19;5112180;28;20031;-64
2023/10/18 06:19:36;;;;;;;11.35;7.70;;;;;;;8.89;62.38;100782.00;5112304;28;20706;-64
2023/10/18 06:22:08;;;;;;;9.90;6.93;;;;;;;8.88;62.27;100768.38;5102172;28;20427;-65
2023/10/18 06:24:33;;;;;;;9.77;7.82;;;;;;;8.87;62.33;100758.41;5096931;28;20028;-65
2023/10/18 06:26:58;;;;;;;9.43;7.43;;;;;;;8.84;62.32;100760.59;5095409;28;20142;-66
2023/10/18 06:29:24;;;;;;;10.25;7.93;;;;;;;8.86;62.14;100757.56;5103706;28;20028;-65
2023/10/18 06:31:49;;;;;;;9.25;7.45;;;;;;;8.85;62.16;100761.41;5098912;28;20051;-64
2023/10/18 06:34:18;;;;;;;11.15;7.55;;;;;;;8.78;62.20;100764.31;5096737;28;20028;-64
2023/10/18 06:36:44;;;;;;;10.07;7.15;;;;;;;8.77;62.43;100762.63;5107445;28;20030;-65
2023/10/18 06:39:24;;;;;;;9.18;7.57;;;;;;;8.79;62.19;100759.63;5098959;28;20042;-66
2023/10/18 06:41:52;;;;;;;10.13;7.22;;;;;;;8.83;62.23;100755.28;5104890;28;20467;-65
2023/10/18 06:44:18;;;;;;;10.68;7.20;;;;;;;8.82;62.36;100743.38;5100659;28;20023;-65
2023/10/18 06:46:47;;;;;;;9.05;7.50;;;;;;;8.83;62.06;100741.44;5091079;28;20047;-65
2023/10/18 06:49:13;;;;;;;9.88;7.65;;;;;;;8.84;61.95;100743.97;5093199;28;20034;-64
2023/10/18 06:51:43;;;;;;;9.38;6.97;;;;;;;8.85;61.97;100736.50;5108865;28;20039;-65
2023/10/18 06:54:15;;;;;;;10.23;6.95;;;;;;;8.88;61.77;100736.00;5094602;28;20455;-65
2023/10/18 06:56:45;;;;;;;10.65;7.25;;;;;;;8.83;62.42;100741.44;5092373;28;20059;-66
2023/10/18 06:59:10;;;;;;;10.82;7.25;;;;;;;8.76;62.17;100729.66;5095450;28;20063;-66
2023/10/18 07:01:53;;;;;;;9.25;7.40;;;;;;;8.78;62.33;100725.56;5094282;28;20051;-65
2023/10/18 07:04:18;;;;;;;9.63;7.57;;;;;;;8.80;61.94;100717.88;5091809;28;20020;-65
2023/10/18 07:06:44;;;;;;;9.98;7.47;;;;;;;8.77;62.55;100723.06;5098929;28;20346;-65
2023/10/18 07:09:31;;;;;;;10.30;6.90;;;;;;;8.78;62.15;100720.03;5108218;28;20486;-65
2023/10/18 07:12:10;;;;;;;10.48;7.63;;;;;;;8.79;62.27;100718.09;5097824;28;20028;-64
2023/10/18 07:14:39;;;;;;;8.77;7.05;;;;;;;8.88;62.58;100721.31;5094030;28;20077;-64
2023/10/18 07:17:05;;;;;;;11.40;8.00;;;;;;;8.85;62.05;100714.38;5106433;28;20028;-65
2023/10/18 07:19:33;;;;;;;8.55;7.15;;;;;;;8.83;62.50;100716.53;5095146;28;20035;-64
2023/10/18 07:22:00;;;;;;;11.80;7.95;;;;;;;8.78;62.36;100700.66;5102041;28;20035;-64
2023/10/18 07:24:36;;;;;;;10.90;7.75;;;;;;;8.74;62.00;100702.25;5107021;28;20032;-61
2023/10/18 07:27:09;;;;;;;11.30;7.40;;;;;;;8.76;62.20;100690.91;5093893;28;20159;-63
2023/10/18 07:29:36;;;;;;;;;;;;;;;8.91;61.94;100695.94;5101113;28;20020;-64
2023/10/18 07:32:06;;;;;;;8.38;7.50;;;;;;;8.78;62.06;100692.34;5094677;28;19924;-63
2023/10/18 07:34:38;;;;;;;9.35;7.22;;;;;;;8.78;62.28;100686.81;5071824;28;20826;-63
2023/10/18 07:40:21;;;;;;;11.52;7.85;;;;;;;8.77;62.71;100690.69;5038590;28;20610;-64
2023/10/18 07:42:50;;;;;;;;;;;;;;;8.94;61.99;100687.97;5077867;28;20043;-64
2023/10/18 07:45:15;;;;;;;12.20;7.68;;;;;;;8.83;62.32;100683.31;5095430;28;19923;-63
2023/10/18 07:47:40;;;;;;;11.88;8.07;;;;;;;8.84;62.32;100677.56;5099250;28;20051;-63
2023/10/18 07:52:56;;;;;;;8.35;6.43;;;;;;;9.13;71.20;100666.47;5089860;28;20051;-62
2023/10/18 07:55:22;;;;;;;10.90;7.68;;;;;;;9.03;63.17;100669.88;5092359;28;20495;-62
2023/10/18 07:57:48;;;;;;;10.38;7.78;;;;;;;9.04;62.74;100663.28;5093890;28;20042;-62
2023/10/18 08:00:21;;;;;;;12.23;7.75;;;;;;;9.03;62.38;100660.72;5092932;28;20016;-63
2023/10/18 08:02:46;;;;;;;10.85;8.00;;;;;;;9.07;62.17;100661.91;5091194;28;20035;-64
2023/10/18 08:05:12;;;;;;;11.80;7.70;;;;;;;9.06;62.16;100661.06;5098551;28;20392;-62
2023/10/18 08:07:37;;;;;;;10.95;7.72;;;;;;;9.10;62.77;100662.25;5090604;28;20066;-64
2023/10/18 08:10:08;;;;;;;10.27;7.72;;;;;;;9.10;62.47;100670.56;5096577;28;20979;-63
2023/10/18 08:12:33;;;;;;;8.77;7.78;;;;;;;9.17;62.58;100661.28;5096092;28;20032;-64
2023/10/18 08:14:59;;;;;;;15.10;8.63;;;;;;;9.22;62.30;100653.88;5098951;28;20028;-63
2023/10/18 08:17:44;;;;;;;11.45;8.45;;;;;;;9.31;62.75;100651.56;5093975;28;20020;-64
2023/10/18 08:22:50;;;;;;;12.75;8.23;;;;;;;9.46;61.67;100649.06;5088632;28;20050;-64
2023/10/18 08:25:22;;;;;;;12.02;7.78;;;;;;;9.54;61.80;100651.41;5094779;28;20490;-63
2023/10/18 08:27:48;;;;;;;10.25;7.40;;;;;;;9.61;62.32;100655.94;5088828;28;20753;-63
2023/10/18 08:30:23;;;;;;;10.30;7.95;;;;;;;9.62;61.48;100629.91;5088904;28;20752;-63
2023/10/18 08:32:50;;;;;;;11.15;8.13;;;;;;;9.65;61.67;100630.25;5089960;28;20028;-64
2023/10/18 08:35:19;;;;;;;11.30;8.43;;;;;;;9.66;61.30;100633.84;5090724;28;20036;-61
2023/10/18 08:37:45;;;;;;;10.98;8.05;;;;;;;9.63;61.47;100624.13;5093938;28;20062;-65
2023/10/18 08:40:16;;;;;;;12.15;7.97;;;;;;;9.65;61.65;100624.72;5096641;28;20068;-64
2023/10/18 08:42:50;;;;;;;10.98;8.23;;;;;;;9.67;61.57;100619.78;5090154;28;20036;-64
2023/10/18 08:45:23;;;;;;;8.60;7.38;;;;;;;9.74;61.48;100611.25;5097069;28;20028;-64
2023/10/18 08:47:52;;;;;;;;;;;;;;;9.87;61.88;100616.47;5091190;28;20058;-63
2023/10/18 08:50:18;;;;;;;12.23;7.80;;;;;;;9.81;61.10;100614.69;5093317;28;19931;-63
2023/10/18 08:52:48;;;;;;;10.88;7.75;;;;;;;9.84;61.11;100616.97;5102243;28;20487;-63
2023/10/18 08:57:59;;;;;;;13.13;7.15;;;;;;;9.94;61.41;100613.50;5091680;28;20157;-63
2023/10/18 09:02:53;;;;;;;11.13;7.13;;;;;;;10.03;60.84;100607.28;5105365;28;20395;-63
2023/10/18 09:05:22;;;;;;;11.32;7.68;;;;;;;10.08;61.15;100596.25;5101137;28;20114;-64
2023/10/18 09:07:55;;;;;;;9.50;7.93;;;;;;;10.13;61.06;100592.69;5089053;28;20051;-65
2023/10/18 09:10:42;;;;;;;9.20;7.60;;;;;;;10.21;60.96;100591.41;5095442;28;20086;-63
2023/10/18 09:18:23;;;;;;;11.95;8.18;;;;;;;10.37;60.62;100573.06;5093464;28;20059;-63
2023/10/18 09:20:49;;;;;;;8.82;6.93;;;;;;;10.44;60.65;100569.00;5096855;28;20020;-65
2023/10/18 09:23:21;;;;;;;12.05;7.60;;;;;;;10.50;60.63;100565.19;5100359;28;20032;-64
2023/10/18 09:25:48;;;;;;;10.30;7.03;;;;;;;10.59;60.33;100564.72;5100050;28;20067;-64
2023/10/18 09:28:32;;;;;;;10.77;6.72;;;;;;;10.62;59.84;100562.28;5104323;28;20076;-65
2023/10/18 09:31:11;;;;;;;10.55;7.18;;;;;;;10.72;60.23;100565.16;5100919;28;20054;-64
2023/10/18 09:33:48;;;;;;;8.80;6.53;;;;;;;10.80;60.21;100550.78;5111126;28;20024;-64
2023/10/18 09:36:23;;;;;;;8.60;6.85;;;;;;;10.91;60.12;100543.41;5104681;28;20722;-64
2023/10/18 09:38:50;;;;;;;9.10;6.78;;;;;;;10.98;59.74;100549.59;5098913;28;20165;-64
2023/10/18 09:41:19;;;;;;;11.77;6.70;;;;;;;11.06;59.32;100546.34;5093108;28;20501;-64
2023/10/18 09:43:45;;;;;;;12.93;6.65;;;;;;;11.14;59.47;100533.91;5099248;28;20036;-59
2023/10/18 09:46:13;;;;;;;8.10;6.32;;;;;;;11.19;59.16;100528.38;5103185;28;20580;-60
2023/10/18 09:48:41;;;;;;;9.77;7.28;;;;;;;11.23;58.82;100509.25;5095911;28;20047;-64
2023/10/18 09:51:09;;;;;;;10.50;6.82;;;;;;;11.29;58.54;100508.19;5106683;28;20030;-64
2023/10/18 09:53:51;;;;;;;9.95;6.85;;;;;;;11.35;58.43;100497.94;5110456;28;20740;-63
2023/10/18 09:56:24;;;;;;;9.88;6.85;;;;;;;11.43;58.63;100484.38;5103201;28;20055;-63
2023/10/18 09:58:51;;;;;;;9.70;6.30;;;;;;;11.49;58.51;100485.28;5101283;28;20058;-64
2023/10/18 10:01:27;;;;;;;9.07;6.65;;;;;;;11.54;58.70;100483.34;5096308;28;20028;-64
2023/10/18 10:03:52;;;;;;;8.95;6.55;;;;;;;11.60;58.45;100486.19;5102719;28;20318;-64
2023/10/18 10:06:26;;;;;;;7.22;6.38;;;;;;;11.65;58.43;100487.03;5109285;28;20069;-65
2023/10/18 10:09:12;;;;;;;8.18;6.53;;;;;;;11.75;59.02;100475.09;5098876;28;20046;-64
2023/10/18 10:11:45;;;;;;;8.57;6.30;;;;;;;11.86;58.95;100474.09;5096797;28;20028;-64
2023/10/18 10:14:15;;;;;;;7.35;6.65;;;;;;;11.91;58.46;100467.75;5092607;28;20028;-65
2023/10/18 10:16:45;;;;;;;11.02;6.95;;;;;;;11.96;58.25;100467.75;5097693;28;20073;-65
2023/10/18 10:19:12;;;;;;;11.68;7.03;;;;;;;11.95;58.12;100458.56;5093928;28;20027;-65
2023/10/18 10:21:40;;;;;;;7.82;6.43;;;;;;;11.97;58.14;100452.72;5094463;28;20023;-64
2023/10/18 10:26:52;;;;;;;8.27;7.13;;;;;;;12.14;60.69;100438.59;5105123;28;20132;-65
2023/10/18 10:32:05;;;;;;;9.70;7.68;;;;;;;12.54;59.08;100423.94;5097100;28;20127;-64
2023/10/18 10:34:37;;;;;;;9.15;7.82;;;;;;;12.55;57.84;100433.13;5101748;28;20068;-64
2023/10/18 10:37:10;;;;;;;13.25;7.25;;;;;;;12.47;58.14;100415.84;5106487;28;20027;-64
2023/10/18 10:39:36;;;;;;;;;;;;;;;12.53;59.49;100409.16;5094149;28;20032;-63
2023/10/18 10:42:27;;;;;;;8.45;7.43;;;;;;;12.48;58.06;100406.38;5097948;28;19927;-64
2023/10/18 10:47:43;;;;;;;9.88;6.95;;;;;;;12.52;58.30;100396.38;5089698;28;20050;-63
2023/10/18 10:50:09;;;;;;;8.07;6.75;;;;;;;12.56;58.55;100393.03;5092208;28;20035;-62
2023/10/18 10:52:40;;;;;;;8.80;6.70;;;;;;;12.57;57.95;100383.56;5090986;28;20027;-62
2023/10/18 10:55:21;;;;;;;9.88;7.03;;;;;;;12.55;58.31;100386.63;5095695;28;20360;-62
2023/10/18 10:57:48;;;;;;;10.70;6.55;;;;;;;12.53;58.94;100381.31;5092413;28;20127;-63
2023/10/18 11:03:06;;;;;;;9.38;7.35;;;;;;;12.50;59.02;100365.22;5097705;28;20335;-62
2023/10/18 11:05:39;;;;;;;8.57;7.07;;;;;;;12.50;58.83;100359.63;5102168;28;20031;-62
2023/10/18 11:08:05;;;;;;;10.90;7.13;;;;;;;12.56;58.67;100354.06;5098068;28;20032;-64
2023/10/18 11:10:39;;;;;;;9.52;7.00;;;;;;;12.58;58.69;100349.91;5102342;28;20046;-62
2023/10/18 11:13:07;;;;;;;7.35;6.57;;;;;;;12.64;58.86;100342.38;5093858;28;20052;-59
2023/10/18 11:15:36;;;;;;;8.82;6.93;;;;;;;12.69;58.11;100346.00;5090911;28;20438;-63
2023/10/18 11:18:20;;;;;;;9.75;7.55;;;;;;;12.74;57.96;100334.84;5101251;28;20039;-63
2023/10/18 11:20:51;;;;;;;7.60;6.60;;;;;;;12.80;58.45;100332.88;5093506;28;20028;-64
2023/10/18 11:23:16;;;;;;;10.48;7.00;;;;;;;12.88;58.19;100335.09;5108067;28;20031;-64
2023/10/18 11:25:42;;;;;;;10.25;7.53;;;;;;;12.88;57.80;100323.94;5100208;28;20557;-64
2023/10/18 11:28:20;;;;;;;7.75;6.93;;;;;;;12.89;57.86;100311.72;5088769;28;20028;-65
2023/10/18 11:30:45;;;;;;;15.25;7.57;;;;;;;12.90;58.40;100310.59;5107130;28;20142;-65
2023/10/18 11:33:17;;;;;;;9.55;7.47;;;;;;;12.95;58.24;100306.94;5093063;28;20028;-65
2023/10/18 11:35:48;;;;;;;9.52;7.32;;;;;;;12.97;57.61;100301.94;5091091;28;20076;-66
2023/10/18 11:38:14;;;;;;;8.60;6.63;;;;;;;12.98;57.37;100296.09;5092242;28;20047;-65
2023/10/18 11:40:43;;;;;;;9.75;7.75;;;;;;;12.99;57.39;100306.09;5102372;28;20055;-66
2023/10/18 11:43:09;;;;;;;11.48;7.18;;;;;;;13.02;57.39;100304.72;5098393;28;20102;-66
2023/10/18 11:45:37;;;;;;;8.63;7.30;;;;;;;13.02;57.85;100294.41;5103611;28;20127;-66
2023/10/18 11:48:03;;;;;;;9.18;7.13;;;;;;;13.07;57.68;100278.78;5099858;28;20044;-65
2023/10/18 11:50:39;;;;;;;10.80;7.20;;;;;;;13.10;57.62;100267.91;5096082;28;20032;-64
2023/10/18 11:53:12;;;;;;;7.82;6.45;;;;;;;13.14;57.91;100268.16;5100850;28;20027;-65
2023/10/18 11:55:55;;;;;;;7.60;6.55;;;;;;;13.16;58.26;100250.03;5091236;28;20095;-65
2023/10/18 11:58:25;;;;;;;10.10;6.63;;;;;;;13.15;57.71;100242.78;5092769;28;20466;-65
2023/10/18 12:00:57;;;;;;;7.47;6.47;;;;;;;13.15;57.79;100253.94;5097618;28;20028;-66
2023/10/18 12:03:23;;;;;;;9.40;6.72;;;;;;;13.14;56.50;100245.88;5099231;28;20034;-65
2023/10/18 12:05:49;;;;;;;10.43;6.95;;;;;;;13.11;56.72;100240.88;5103465;28;20023;-65
2023/10/18 12:08:16;;;;;;;10.25;7.22;;;;;;;13.11;56.82;100224.16;5100583;28;20401;-66
2023/10/18 12:10:41;;;;;;;11.68;6.90;;;;;;;13.13;57.41;100219.13;5098874;28;20069;-65
2023/10/18 12:13:07;;;;;;;7.82;6.18;;;;;;;13.12;57.50;100221.06;5097541;28;20531;-66
2023/10/18 12:15:37;;;;;;;10.38;6.20;;;;;;;13.15;58.40;100214.09;5108818;28;20027;-66
2023/10/18 12:18:05;;;;;;;13.48;6.65;;;;;;;13.13;57.51;100199.63;5103879;28;20035;-65
2023/10/18 12:20:35;;;;;;;10.50;6.30;;;;;;;13.14;56.72;100187.38;5104377;28;20048;-65
2023/10/18 12:23:04;;;;;;;8.63;6.60;;;;;;;13.15;56.61;100194.59;5096655;28;20052;-65
2023/10/18 12:25:32;;;;;;;8.70;5.82;;;;;;;13.18;56.92;100197.66;5088391;28;20036;-65
2023/10/18 12:28:00;;;;;;;8.32;6.80;;;;;;;13.14;56.33;100190.97;5090200;28;20028;-67
2023/10/18 12:30:35;;;;;;;8.88;6.60;;;;;;;13.14;56.89;100179.00;5093287;28;21891;-65